Terminal Aerodrome Forecast
Issued by NWS Green Bay, WI

Home | Current Version | Previous Version | Graphics & Text | Print | Product List | Glossary On
Versions: 1 2 3 4 5 6 7 8 9 10 11 12 13 14 15 16 17 18 19 20 21 22 23 24 25 26 27 28 29 30 31 32 33 34 35 36
000
FTUS43 KGRB 211139
TAFGRB
TAF
KGRB 211139Z 2112/2212 VRB03KT P6SM SKC
     FM211600 23005KT P6SM SCT050
     FM212200 19010KT P6SM SCT040
     FM220200 16008KT P6SM SCT035 BKN070 PROB30 2203/2206 -SHRA
      BKN035
     FM220600 15008KT P6SM -SHRA SCT012 OVC030
      TEMPO 2209/2212 3SM +TSRA OVC012CB=

USA.gov is the U.S. government's official web portal to all federal, state and local government web resources and services.